createdAt,value
2022-11-05T00:00:10.033Z,95.20
2022-11-05T00:01:10.009Z,95.30
2022-11-05T00:02:10.013Z,95.50
2022-11-05T00:03:10.268Z,95.61
2022-11-05T00:04:10.095Z,95.61
2022-11-05T00:05:09.986Z,95.81
2022-11-05T00:06:09.984Z,95.92
2022-11-05T00:07:09.942Z,96.43
2022-11-05T00:08:09.959Z,96.43
2022-11-05T00:09:09.922Z,95.81
2022-11-05T00:10:09.931Z,95.81
2022-11-05T00:11:13.866Z,95.81
2022-11-05T00:12:09.913Z,96.22
2022-11-05T00:13:10.242Z,96.33
2022-11-05T00:14:09.884Z,96.02
2022-11-05T00:15:09.874Z,95.92
2022-11-05T00:16:09.859Z,96.06
2022-11-05T00:17:09.867Z,96.22
2022-11-05T00:18:09.848Z,96.06
2022-11-05T00:19:09.815Z,96.17
2022-11-05T00:20:09.819Z,95.34
2022-11-05T00:21:09.813Z,95.86
2022-11-05T00:22:09.796Z,96.47
2022-11-05T00:23:10.141Z,96.37
2022-11-05T00:24:09.797Z,96.99
2022-11-05T00:25:09.752Z,96.47
2022-11-05T00:26:09.755Z,96.58
2022-11-05T00:27:09.739Z,95.96
2022-11-05T00:28:09.739Z,95.65
2022-11-05T00:29:09.753Z,96.17
2022-11-05T00:30:09.717Z,96.00
2022-11-05T00:31:09.705Z,96.42
2022-11-05T00:32:09.698Z,96.72
2022-11-05T00:33:09.953Z,95.70
2022-11-05T00:34:09.669Z,96.42
2022-11-05T00:35:09.691Z,97.34
2022-11-05T00:36:09.657Z,97.03
2022-11-05T00:37:09.628Z,96.00
2022-11-05T00:38:09.642Z,96.00
2022-11-05T00:39:09.614Z,96.05
2022-11-05T00:40:09.614Z,96.97
2022-11-05T00:41:09.621Z,97.08
2022-11-05T00:42:09.598Z,96.56
2022-11-05T00:43:09.921Z,96.56
2022-11-05T00:44:09.569Z,97.02
2022-11-05T00:45:09.555Z,97.18
2022-11-05T00:46:09.543Z,96.88
2022-11-05T00:47:09.559Z,96.20
2022-11-05T00:48:09.527Z,95.68
2022-11-05T00:49:09.516Z,95.48
2022-11-05T00:50:09.503Z,95.48
2022-11-05T00:51:09.479Z,96.09
2022-11-05T00:52:09.502Z,95.73
2022-11-05T00:53:09.960Z,95.83
2022-11-05T00:54:09.460Z,96.14
2022-11-05T00:55:09.448Z,96.14
2022-11-05T00:56:09.438Z,95.93
2022-11-05T00:57:09.414Z,95.83
2022-11-05T00:58:09.432Z,95.15
2022-11-05T00:59:09.418Z,94.95
2022-11-05T01:00:09.396Z,95.56
2022-11-05T01:01:09.483Z,95.87
2022-11-05T01:02:09.529Z,96.08
2022-11-05T01:03:09.797Z,96.08
2022-11-05T01:04:09.392Z,97.31
2022-11-05T01:05:09.367Z,95.98
2022-11-05T01:06:09.337Z,95.67
2022-11-05T01:07:09.314Z,95.30
2022-11-05T01:08:09.319Z,97.77
2022-11-05T01:09:09.283Z,96.02
2022-11-05T01:10:09.294Z,96.12
2022-11-05T01:11:09.348Z,98.08
2022-11-05T01:12:09.267Z,98.08
2022-11-05T01:13:12.868Z,96.53
2022-11-05T01:14:09.253Z,96.23
2022-11-05T01:15:09.227Z,97.47
2022-11-05T01:16:09.229Z,95.71
2022-11-05T01:17:09.245Z,96.12
2022-11-05T01:18:09.207Z,96.02
2022-11-05T01:19:09.188Z,97.05
2022-11-05T01:20:09.191Z,97.36
2022-11-05T01:21:09.161Z,97.56
2022-11-05T01:22:09.162Z,96.12
2022-11-05T01:23:13.565Z,95.92
2022-11-05T01:24:09.145Z,96.53
2022-11-05T01:25:09.122Z,96.48
2022-11-05T01:26:09.131Z,95.86
2022-11-05T01:27:09.107Z,96.06
2022-11-05T01:28:09.132Z,96.17
2022-11-05T01:29:09.209Z,95.86
2022-11-05T01:30:09.267Z,95.86
2022-11-05T01:31:09.058Z,97.41
2022-11-05T01:32:09.067Z,96.06
2022-11-05T01:33:09.392Z,96.06
2022-11-05T01:34:09.042Z,96.17
2022-11-05T01:35:09.058Z,96.06
2022-11-05T01:36:09.032Z,95.76
2022-11-05T01:37:08.998Z,98.23
2022-11-05T01:38:08.996Z,96.79
2022-11-05T01:39:08.980Z,96.62
2022-11-05T01:40:08.978Z,98.02
2022-11-05T01:41:08.989Z,96.27
2022-11-05T01:42:08.962Z,95.70
2022-11-05T01:43:09.274Z,95.59
2022-11-05T01:44:08.964Z,96.21
2022-11-05T01:45:08.907Z,96.01
2022-11-05T01:46:08.915Z,95.90
2022-11-05T01:47:08.923Z,95.80
2022-11-05T01:48:08.891Z,97.04
2022-11-05T01:49:08.864Z,96.01
2022-11-05T01:50:08.891Z,95.39
2022-11-05T01:51:08.866Z,95.70
2022-11-05T01:52:08.849Z,97.25
2022-11-05T01:53:09.392Z,96.42
2022-11-05T01:54:08.830Z,96.83
2022-11-05T01:55:08.810Z,96.94
2022-11-05T01:56:08.805Z,95.84
2022-11-05T01:57:08.784Z,95.74
2022-11-05T01:58:08.785Z,96.15
2022-11-05T01:59:08.875Z,97.08
2022-11-05T02:00:08.768Z,96.05
2022-11-05T02:01:08.739Z,95.95
2022-11-05T02:02:08.875Z,95.59
2022-11-05T02:03:09.070Z,95.32
2022-11-05T02:04:08.722Z,96.98
2022-11-05T02:05:08.720Z,95.43
2022-11-05T02:06:08.730Z,95.95
2022-11-05T02:07:08.676Z,96.15
2022-11-05T02:08:08.682Z,96.26
2022-11-05T02:09:08.664Z,97.50
2022-11-05T02:10:08.662Z,95.32
2022-11-05T02:11:08.659Z,95.53
2022-11-05T02:12:08.646Z,97.39
2022-11-05T02:13:08.923Z,94.60
2022-11-05T02:14:08.615Z,94.81
2022-11-05T02:15:08.609Z,96.30
2022-11-05T02:16:08.597Z,96.20
2022-11-05T02:17:08.609Z,95.68
2022-11-05T02:18:08.584Z,95.27
2022-11-05T02:19:08.553Z,94.71
2022-11-05T02:20:08.561Z,94.81
2022-11-05T02:21:08.555Z,95.57
2022-11-05T02:22:08.535Z,96.09
2022-11-05T02:23:08.922Z,95.78
2022-11-05T02:24:08.528Z,95.78
2022-11-05T02:25:08.493Z,95.89
2022-11-05T02:26:08.491Z,95.78
2022-11-05T02:27:08.485Z,95.68
2022-11-05T02:28:08.477Z,95.99
2022-11-05T02:29:08.479Z,96.41
2022-11-05T02:30:08.479Z,96.72
2022-11-05T02:31:08.425Z,95.57
2022-11-05T02:32:08.428Z,95.37
2022-11-05T02:33:08.794Z,95.06
2022-11-05T02:34:08.411Z,96.20
2022-11-05T02:35:08.418Z,96.61
2022-11-05T02:36:08.390Z,97.64
2022-11-05T02:37:08.380Z,96.61
2022-11-05T02:38:08.368Z,95.78
2022-11-05T02:39:08.374Z,95.17
2022-11-05T02:40:08.347Z,94.23
2022-11-05T02:41:08.353Z,94.96
2022-11-05T02:42:08.324Z,96.92
2022-11-05T02:43:08.569Z,95.57
2022-11-05T02:44:08.302Z,94.79
2022-11-05T02:45:08.284Z,94.59
2022-11-05T02:46:08.326Z,94.90
2022-11-05T02:47:08.256Z,95.31
2022-11-05T02:48:08.261Z,95.83
2022-11-05T02:49:08.272Z,95.00
2022-11-05T02:50:08.239Z,97.49
2022-11-05T02:51:08.214Z,97.17
2022-11-05T02:52:08.243Z,95.62
2022-11-05T02:53:08.509Z,96.55
2022-11-05T02:54:08.197Z,97.07
2022-11-05T02:55:08.194Z,95.62
2022-11-05T02:56:08.177Z,94.69
2022-11-05T02:57:08.175Z,94.48
2022-11-05T02:58:08.215Z,94.90
2022-11-05T02:59:08.129Z,95.10
2022-11-05T03:00:08.141Z,95.42
2022-11-05T03:01:08.128Z,95.42
2022-11-05T03:02:08.311Z,96.03
2022-11-05T03:03:08.301Z,96.86
2022-11-05T03:04:08.110Z,96.76
2022-11-05T03:05:08.068Z,96.55
2022-11-05T03:06:08.071Z,96.97
2022-11-05T03:07:08.097Z,96.45
2022-11-05T03:08:08.056Z,95.73
2022-11-05T03:09:08.032Z,95.31
2022-11-05T03:10:08.036Z,95.00
2022-11-05T03:11:08.017Z,95.10
2022-11-05T03:12:08.033Z,95.42
2022-11-05T03:13:08.170Z,96.14
2022-11-05T03:14:07.996Z,96.34
2022-11-05T03:15:07.969Z,98.16
2022-11-05T03:16:07.966Z,98.57
2022-11-05T03:17:07.941Z,98.06
2022-11-05T03:18:07.985Z,98.43
2022-11-05T03:19:07.924Z,99.15
2022-11-05T03:20:07.924Z,99.35
2022-11-05T03:21:07.905Z,98.63
2022-11-05T03:22:07.898Z,97.39
2022-11-05T03:23:08.236Z,97.60
2022-11-05T03:24:07.869Z,97.08
2022-11-05T03:25:07.892Z,97.91
2022-11-05T03:26:07.847Z,96.88
2022-11-05T03:27:07.851Z,95.95
2022-11-05T03:28:07.852Z,96.05
2022-11-05T03:29:07.851Z,96.56
2022-11-05T03:30:07.814Z,96.36
2022-11-05T03:31:07.866Z,97.34
2022-11-05T03:32:07.787Z,97.55
2022-11-05T03:33:07.969Z,97.55
2022-11-05T03:34:07.785Z,97.34
2022-11-05T03:35:07.775Z,97.34
2022-11-05T03:36:07.749Z,97.66
2022-11-05T03:37:08.451Z,97.86
2022-11-05T03:38:08.590Z,97.86
2022-11-05T03:39:08.493Z,97.45
2022-11-05T03:40:07.704Z,97.34
2022-11-05T03:41:07.707Z,97.66
2022-11-05T03:42:07.686Z,97.55
2022-11-05T03:43:07.867Z,97.76
2022-11-05T03:44:07.704Z,97.25
2022-11-05T03:45:07.661Z,97.51
2022-11-05T03:46:07.642Z,96.99
2022-11-05T03:47:07.658Z,96.89
2022-11-05T03:48:07.690Z,96.99
2022-11-05T03:49:07.621Z,96.62
2022-11-05T03:50:07.634Z,96.37
2022-11-05T03:51:07.601Z,96.42
2022-11-05T03:52:07.580Z,96.83
2022-11-05T03:53:07.766Z,96.73
2022-11-05T03:54:07.557Z,96.31
2022-11-05T03:55:07.585Z,96.62
2022-11-05T03:56:07.553Z,97.25
2022-11-05T03:57:07.536Z,97.14
2022-11-05T03:58:07.520Z,97.14
2022-11-05T03:59:07.520Z,96.94
2022-11-05T04:00:07.504Z,96.79
2022-11-05T04:01:07.531Z,96.69
2022-11-05T04:02:07.645Z,96.94
2022-11-05T04:03:07.599Z,96.58
2022-11-05T04:04:07.449Z,96.69
2022-11-05T04:05:07.469Z,96.99
2022-11-05T04:06:07.462Z,97.20
2022-11-05T04:07:07.436Z,96.52
2022-11-05T04:08:12.913Z,96.31
2022-11-05T04:09:07.417Z,96.21
2022-11-05T04:10:07.385Z,96.73
2022-11-05T04:11:07.392Z,96.11
2022-11-05T04:12:07.384Z,95.49
2022-11-05T04:13:07.521Z,95.12
2022-11-05T04:14:07.367Z,96.15
2022-11-05T04:15:07.350Z,97.08
2022-11-05T04:16:07.322Z,94.60
2022-11-05T04:17:07.374Z,94.92
2022-11-05T04:18:07.302Z,95.12
2022-11-05T04:19:07.308Z,95.89
2022-11-05T04:20:07.309Z,97.13
2022-11-05T04:21:07.287Z,97.96
2022-11-05T04:22:07.260Z,98.37
2022-11-05T04:23:07.435Z,97.33
2022-11-05T04:24:07.242Z,97.33
2022-11-05T04:25:07.244Z,96.30
2022-11-05T04:26:07.254Z,95.00
2022-11-05T04:27:07.225Z,95.62
2022-11-05T04:28:07.217Z,95.00
2022-11-05T04:29:08.066Z,97.53
2022-11-05T04:30:07.183Z,98.62
2022-11-05T04:31:07.191Z,96.76
2022-11-05T04:32:07.161Z,96.14
2022-11-05T04:33:07.194Z,95.83
2022-11-05T04:34:07.133Z,96.86
2022-11-05T04:35:07.141Z,97.17
2022-11-05T04:36:07.130Z,96.91
2022-11-05T04:37:07.115Z,96.39
2022-11-05T04:38:07.143Z,96.80
2022-11-05T04:39:07.104Z,96.80
2022-11-05T04:40:07.073Z,96.29
2022-11-05T04:41:07.074Z,95.77
2022-11-05T04:42:07.058Z,96.08
2022-11-05T04:43:12.048Z,96.91
2022-11-05T04:44:07.056Z,96.80
2022-11-05T04:45:07.036Z,96.59
2022-11-05T04:46:07.013Z,96.39
2022-11-05T04:47:07.016Z,96.75
2022-11-05T04:48:07.026Z,96.85
2022-11-05T04:49:07.015Z,98.15
2022-11-05T04:50:06.975Z,97.32
2022-11-05T04:51:06.991Z,95.77
2022-11-05T04:52:06.949Z,95.61
2022-11-05T04:53:06.954Z,96.44
2022-11-05T04:54:06.926Z,96.02
2022-11-05T04:55:06.956Z,95.29
2022-11-05T04:56:06.905Z,95.61
2022-11-05T04:57:06.906Z,95.81
2022-11-05T04:58:06.885Z,96.33
2022-11-05T04:59:06.888Z,96.23
2022-11-05T05:00:06.883Z,95.81
2022-11-05T05:01:06.929Z,96.44
2022-11-05T05:02:06.868Z,96.85
2022-11-05T05:03:06.848Z,95.81
2022-11-05T05:04:06.824Z,95.81
2022-11-05T05:05:06.829Z,97.16
2022-11-05T05:06:06.824Z,97.06
2022-11-05T05:07:06.818Z,96.23
2022-11-05T05:08:06.798Z,96.48
2022-11-05T05:09:06.781Z,97.06
2022-11-05T05:10:06.759Z,96.02
2022-11-05T05:11:06.801Z,96.33
2022-11-05T05:12:06.736Z,97.16
2022-11-05T05:13:06.741Z,96.69
2022-11-05T05:14:06.735Z,97.00
2022-11-05T05:15:06.719Z,96.48
2022-11-05T05:16:06.903Z,96.37
2022-11-05T05:17:06.701Z,96.79
2022-11-05T05:18:06.688Z,96.17
2022-11-05T05:19:06.685Z,97.31
2022-11-05T05:20:06.659Z,96.48
2022-11-05T05:21:06.685Z,97.00
2022-11-05T05:22:06.655Z,96.48
2022-11-05T05:23:06.639Z,96.79
2022-11-05T05:24:06.615Z,96.58
2022-11-05T05:25:06.615Z,97.20
2022-11-05T05:26:06.590Z,97.31
2022-11-05T05:27:06.616Z,97.00
2022-11-05T05:28:06.576Z,97.88
2022-11-05T05:29:06.575Z,98.61
2022-11-05T05:30:06.555Z,98.61
2022-11-05T05:31:06.550Z,98.19
2022-11-05T05:32:06.538Z,98.71
2022-11-05T05:33:06.554Z,98.09
2022-11-05T05:34:06.512Z,98.19
2022-11-05T05:35:06.520Z,97.26
2022-11-05T05:36:11.050Z,97.26
2022-11-05T05:37:06.496Z,97.26
2022-11-05T05:38:06.512Z,98.09
2022-11-05T05:39:06.470Z,97.01
2022-11-05T05:40:06.449Z,98.46
2022-11-05T05:41:06.445Z,98.35
2022-11-05T05:42:06.437Z,97.53
2022-11-05T05:43:06.461Z,97.22
2022-11-05T05:44:06.411Z,96.59
2022-11-05T05:45:06.410Z,95.50
2022-11-05T05:46:06.380Z,96.23
2022-11-05T05:47:06.385Z,96.91
2022-11-05T05:48:06.367Z,96.59
2022-11-05T05:49:11.247Z,96.44
2022-11-05T05:50:06.353Z,96.12
2022-11-05T05:51:06.363Z,95.92
2022-11-05T05:52:06.323Z,96.02
2022-11-05T05:53:06.326Z,96.64
2022-11-05T05:54:06.324Z,96.33
2022-11-05T05:55:06.306Z,97.36
2022-11-05T05:56:06.280Z,95.92
2022-11-05T05:57:06.280Z,95.50
2022-11-05T05:58:06.261Z,95.71
2022-11-05T05:59:06.258Z,95.65
2022-11-05T06:00:06.259Z,97.10
2022-11-05T06:01:06.248Z,96.58
2022-11-05T06:02:06.327Z,96.37
2022-11-05T06:03:06.360Z,95.96
2022-11-05T06:04:06.221Z,96.06
2022-11-05T06:05:06.229Z,95.65
2022-11-05T06:06:06.181Z,95.44
2022-11-05T06:07:06.184Z,95.65
2022-11-05T06:08:06.155Z,94.93
2022-11-05T06:09:06.163Z,95.75
2022-11-05T06:10:06.130Z,96.17
2022-11-05T06:11:06.212Z,97.31
2022-11-05T06:12:06.108Z,96.69
2022-11-05T06:13:06.121Z,95.75
2022-11-05T06:14:06.088Z,95.65
2022-11-05T06:15:06.100Z,95.14
2022-11-05T06:16:06.106Z,95.34
2022-11-05T06:17:06.081Z,96.21
2022-11-05T06:18:06.053Z,96.01
2022-11-05T06:19:06.049Z,95.70
2022-11-05T06:20:06.038Z,96.01
2022-11-05T06:21:06.090Z,96.21
2022-11-05T06:22:06.148Z,96.11
2022-11-05T06:23:06.011Z,95.80
2022-11-05T06:24:05.983Z,95.90
2022-11-05T06:25:06.015Z,96.21
2022-11-05T06:26:05.975Z,95.28
2022-11-05T06:27:05.999Z,95.59
2022-11-05T06:28:05.950Z,95.90
2022-11-05T06:29:05.978Z,95.22
2022-11-05T06:30:05.925Z,94.97
2022-11-05T06:31:05.944Z,95.18
2022-11-05T06:32:05.924Z,95.84
2022-11-05T06:33:05.908Z,95.49
2022-11-05T06:34:05.879Z,96.01
2022-11-05T06:35:05.881Z,96.31
2022-11-05T06:36:05.860Z,96.11
2022-11-05T06:37:05.860Z,96.31
2022-11-05T06:38:05.862Z,95.07
2022-11-05T06:39:05.844Z,95.07
2022-11-05T06:40:05.821Z,96.15
2022-11-05T06:41:10.034Z,94.91
2022-11-05T06:42:18.434Z,95.64
2022-11-05T06:43:05.838Z,96.57
2022-11-05T06:44:05.794Z,96.36
2022-11-05T06:45:05.778Z,95.74
2022-11-05T06:46:05.757Z,95.95
2022-11-05T06:47:05.754Z,96.21
2022-11-05T06:48:05.730Z,95.74
2022-11-05T06:49:05.757Z,95.95
2022-11-05T06:50:05.711Z,95.64
2022-11-05T06:51:05.717Z,96.98
2022-11-05T06:52:05.688Z,96.05
2022-11-05T06:53:05.699Z,95.74
2022-11-05T06:54:05.694Z,96.21
2022-11-05T06:55:05.673Z,96.01
2022-11-05T06:56:05.656Z,95.28
2022-11-05T06:57:05.651Z,94.66
2022-11-05T06:58:05.628Z,95.39
2022-11-05T06:59:05.630Z,94.66
2022-11-05T07:00:07.976Z,94.87
2022-11-05T07:01:05.666Z,95.70
2022-11-05T07:02:05.645Z,96.62
2022-11-05T07:03:05.595Z,95.80
2022-11-05T07:04:05.563Z,95.90
2022-11-05T07:05:05.604Z,96.31
2022-11-05T07:06:05.546Z,95.90
2022-11-05T07:07:05.548Z,95.90
2022-11-05T07:08:05.524Z,95.59
2022-11-05T07:09:05.536Z,95.70
2022-11-05T07:10:05.503Z,96.94
2022-11-05T07:11:05.554Z,95.80
2022-11-05T07:12:05.482Z,95.96
2022-11-05T07:13:08.403Z,97.00
2022-11-05T07:14:05.462Z,97.52
2022-11-05T07:15:05.470Z,96.48
2022-11-05T07:16:05.475Z,96.58
2022-11-05T07:17:05.477Z,96.23
2022-11-05T07:18:05.420Z,97.26
2022-11-05T07:19:05.470Z,97.36
2022-11-05T07:20:05.400Z,97.57
2022-11-05T07:21:05.409Z,97.88
2022-11-05T07:22:05.398Z,98.19
2022-11-05T07:23:05.383Z,98.15
2022-11-05T07:24:05.358Z,98.35
2022-11-05T07:25:05.369Z,98.46
2022-11-05T07:26:05.342Z,98.00
2022-11-05T07:27:05.374Z,98.10
2022-11-05T07:28:05.314Z,97.69
2022-11-05T07:29:05.323Z,97.59
2022-11-05T07:30:05.299Z,97.64
2022-11-05T07:31:05.309Z,97.64
2022-11-05T07:32:05.276Z,97.23
2022-11-05T07:33:05.361Z,97.64
2022-11-05T07:34:05.255Z,97.29
2022-11-05T07:35:05.259Z,96.56
2022-11-05T07:36:05.233Z,96.77
2022-11-05T07:37:05.238Z,96.88
2022-11-05T07:38:05.252Z,96.31
2022-11-05T07:39:05.201Z,96.42
2022-11-05T07:40:05.208Z,96.62
2022-11-05T07:41:05.181Z,96.42
2022-11-05T07:42:05.187Z,96.21
2022-11-05T07:43:05.165Z,95.70
2022-11-05T07:44:05.188Z,96.01
2022-11-05T07:45:05.155Z,95.49
2022-11-05T07:46:08.603Z,95.76
2022-11-05T07:47:05.134Z,95.76
2022-11-05T07:48:05.123Z,94.93
2022-11-05T07:49:05.122Z,95.76
2022-11-05T07:50:05.108Z,95.55
2022-11-05T07:51:05.085Z,95.34
2022-11-05T07:52:05.083Z,95.14
2022-11-05T07:53:05.056Z,94.99
2022-11-05T07:54:05.059Z,94.68
2022-11-05T07:55:05.054Z,94.99
2022-11-05T07:56:05.039Z,94.27
2022-11-05T07:57:05.016Z,93.85
2022-11-05T07:58:05.022Z,93.71
2022-11-05T07:59:04.988Z,93.60
2022-11-05T08:00:05.029Z,92.99
2022-11-05T08:01:05.094Z,93.40
2022-11-05T08:02:05.199Z,93.40
2022-11-05T08:03:08.241Z,93.60
2022-11-05T08:04:04.952Z,94.12
2022-11-05T08:05:04.927Z,93.50
2022-11-05T08:06:04.953Z,93.81
2022-11-05T08:07:04.905Z,93.71
2022-11-05T08:08:04.913Z,94.43
2022-11-05T08:09:04.884Z,93.71
2022-11-05T08:10:04.892Z,93.50
2022-11-05T08:11:04.887Z,94.18
2022-11-05T08:12:04.868Z,94.70
2022-11-05T08:13:04.857Z,93.98
2022-11-05T08:14:04.848Z,94.18
2022-11-05T08:15:04.823Z,92.80
2022-11-05T08:16:04.848Z,93.01
2022-11-05T08:17:04.801Z,93.01
2022-11-05T08:18:04.813Z,92.96
2022-11-05T08:19:04.780Z,92.24
2022-11-05T08:20:04.783Z,92.44
2022-11-05T08:21:04.758Z,92.55
2022-11-05T08:22:04.782Z,92.76
2022-11-05T08:23:04.737Z,91.42
2022-11-05T08:24:04.746Z,90.80
2022-11-05T08:25:06.940Z,91.58
2022-11-05T08:26:04.719Z,91.47
2022-11-05T08:27:04.722Z,90.34
2022-11-05T08:28:04.703Z,91.47
2022-11-05T08:29:04.682Z,90.75
2022-11-05T08:30:04.677Z,90.14
2022-11-05T08:31:04.656Z,90.86
2022-11-05T08:32:04.655Z,89.79
2022-11-05T08:33:04.654Z,90.30
2022-11-05T08:34:04.636Z,89.38
2022-11-05T08:35:04.615Z,90.51
2022-11-05T08:36:04.618Z,90.92
2022-11-05T08:37:04.591Z,91.23
2022-11-05T08:38:04.631Z,89.58
2022-11-05T08:39:04.572Z,89.58
2022-11-05T08:40:04.577Z,90.92
2022-11-05T08:41:04.552Z,89.64
2022-11-05T08:42:04.555Z,89.03
2022-11-05T08:43:04.524Z,88.68
2022-11-05T08:44:04.552Z,88.06
2022-11-05T08:45:04.504Z,87.24
2022-11-05T08:46:04.511Z,86.62
2022-11-05T08:47:04.497Z,86.62
2022-11-05T08:48:04.493Z,87.24
2022-11-05T08:49:04.484Z,87.45
2022-11-05T08:50:04.466Z,87.13
2022-11-05T08:51:04.442Z,87.34
2022-11-05T08:52:04.442Z,86.72
2022-11-05T08:53:04.420Z,87.20
2022-11-05T08:54:04.457Z,85.66
2022-11-05T08:55:04.398Z,86.38
2022-11-05T08:56:04.409Z,86.27
2022-11-05T08:57:04.378Z,87.24
2022-11-05T08:58:04.383Z,87.55
2022-11-05T08:59:04.359Z,87.55
2022-11-05T09:00:04.380Z,88.47
2022-11-05T09:01:05.454Z,87.65
2022-11-05T09:02:04.502Z,86.62
2022-11-05T09:03:04.320Z,87.92
2022-11-05T09:04:04.322Z,87.40
2022-11-05T09:05:04.318Z,88.64
2022-11-05T09:06:04.303Z,86.79
2022-11-05T09:07:04.281Z,86.68
2022-11-05T09:08:04.274Z,87.92
2022-11-05T09:09:04.257Z,85.86
2022-11-05T09:10:04.255Z,86.85
2022-11-05T09:11:04.257Z,85.52
2022-11-05T09:12:12.905Z,85.82
2022-11-05T09:13:04.220Z,85.21
2022-11-05T09:14:04.215Z,85.31
2022-11-05T09:15:04.185Z,87.16
2022-11-05T09:16:04.429Z,85.72
2022-11-05T09:17:04.167Z,85.93
2022-11-05T09:18:04.168Z,84.80
2022-11-05T09:19:04.145Z,85.52
2022-11-05T09:20:04.148Z,86.24
2022-11-05T09:21:04.159Z,85.58
2022-11-05T09:22:04.137Z,86.09
2022-11-05T09:23:04.101Z,85.89
2022-11-05T09:24:04.108Z,85.47
2022-11-05T09:25:04.080Z,83.53
2022-11-05T09:26:04.102Z,84.31
2022-11-05T09:27:04.082Z,82.36
2022-11-05T09:28:04.062Z,81.95
2022-11-05T09:29:04.040Z,81.95
2022-11-05T09:30:04.043Z,82.26
2022-11-05T09:31:04.023Z,83.07
2022-11-05T09:32:04.059Z,82.50
2022-11-05T09:33:03.998Z,82.26
2022-11-05T09:34:04.000Z,82.26
2022-11-05T09:35:03.973Z,82.63
2022-11-05T09:36:03.980Z,82.59
2022-11-05T09:37:03.952Z,82.53
2022-11-05T09:38:03.978Z,81.71
2022-11-05T09:39:03.931Z,81.81
2022-11-05T09:40:03.941Z,81.71
2022-11-05T09:41:03.913Z,81.50
2022-11-05T09:42:03.917Z,81.85
2022-11-05T09:43:03.924Z,82.26
2022-11-05T09:44:03.900Z,82.46
2022-11-05T09:45:03.871Z,82.46
2022-11-05T09:46:03.871Z,82.83
2022-11-05T09:47:03.861Z,83.45
2022-11-05T09:48:03.854Z,81.29
2022-11-05T09:49:03.848Z,84.03
2022-11-05T09:50:03.841Z,81.29
2022-11-05T09:51:03.803Z,80.88
2022-11-05T09:52:03.811Z,81.81
2022-11-05T09:53:03.782Z,81.50
2022-11-05T09:54:03.807Z,82.22
2022-11-05T09:55:03.788Z,81.20
2022-11-05T09:56:03.768Z,81.71
2022-11-05T09:57:03.739Z,81.60
2022-11-05T09:58:03.752Z,81.60
2022-11-05T09:59:03.752Z,82.32
2022-11-05T10:00:03.721Z,83.55
2022-11-05T10:01:03.776Z,82.73
2022-11-05T10:02:03.870Z,81.29
2022-11-05T10:03:03.674Z,82.49
2022-11-05T10:04:03.687Z,81.67
2022-11-05T10:05:09.433Z,81.77
2022-11-05T10:06:03.661Z,81.77
2022-11-05T10:07:03.631Z,81.46
2022-11-05T10:08:03.640Z,81.57
2022-11-05T10:09:03.615Z,81.67
2022-11-05T10:10:03.614Z,82.08
2022-11-05T10:11:03.620Z,82.49
2022-11-05T10:12:03.596Z,81.52
2022-11-05T10:13:03.575Z,81.73
2022-11-05T10:14:03.572Z,82.14
2022-11-05T10:15:03.551Z,81.22
2022-11-05T10:16:03.566Z,80.71
2022-11-05T10:17:03.579Z,80.40
2022-11-05T10:18:03.528Z,79.07
2022-11-05T10:19:03.518Z,79.27
2022-11-05T10:20:03.506Z,79.68
2022-11-05T10:21:03.538Z,79.58
2022-11-05T10:22:07.354Z,79.17
2022-11-05T10:23:03.468Z,78.83
2022-11-05T10:24:03.469Z,79.13
2022-11-05T10:25:03.442Z,79.03
2022-11-05T10:26:03.449Z,79.03
2022-11-05T10:27:03.615Z,78.93
2022-11-05T10:28:03.425Z,78.31
2022-11-05T10:29:03.403Z,77.26
2022-11-05T10:30:03.402Z,76.30
2022-11-05T10:31:03.377Z,75.72
2022-11-05T10:32:03.384Z,76.16
2022-11-05T10:33:03.535Z,73.64
2022-11-05T10:34:03.360Z,72.28
2022-11-05T10:35:03.333Z,71.56
2022-11-05T10:36:03.337Z,72.45
2022-11-05T10:37:03.314Z,70.17
2022-11-05T10:38:03.320Z,70.98
2022-11-05T10:39:03.330Z,71.33
2022-11-05T10:40:03.299Z,70.48
2022-11-05T10:41:03.275Z,68.68
2022-11-05T10:42:03.279Z,68.21
2022-11-05T10:43:03.250Z,64.45
2022-11-05T10:44:03.251Z,66.21
2022-11-05T10:45:03.280Z,66.92
2022-11-05T10:46:03.232Z,66.55
2022-11-05T10:47:03.227Z,65.67
2022-11-05T10:48:03.214Z,66.18
2022-11-05T10:49:03.185Z,64.04
2022-11-05T10:50:03.192Z,65.91
2022-11-05T10:51:03.197Z,64.20
2022-11-05T10:52:03.164Z,62.40
2022-11-05T10:53:03.146Z,61.59
2022-11-05T10:54:03.142Z,61.24
2022-11-05T10:55:03.134Z,64.90
2022-11-05T10:56:03.127Z,64.15
2022-11-05T10:57:03.132Z,63.17
2022-11-05T10:58:03.107Z,63.64
2022-11-05T10:59:06.731Z,63.40
2022-11-05T11:00:03.824Z,64.31
2022-11-05T11:01:03.153Z,64.69
2022-11-05T11:02:03.272Z,63.00
2022-11-05T11:03:03.070Z,64.48
2022-11-05T11:04:03.045Z,65.92
2022-11-05T11:05:03.278Z,67.80
2022-11-05T11:06:03.018Z,65.94
2022-11-05T11:07:02.991Z,64.99
2022-11-05T11:08:02.993Z,63.43
2022-11-05T11:09:03.004Z,64.46
2022-11-05T11:10:02.979Z,62.23
2022-11-05T11:11:02.946Z,63.17
2022-11-05T11:12:02.957Z,61.93
2022-11-05T11:13:02.937Z,62.40
2022-11-05T11:14:02.957Z,60.39
2022-11-05T11:15:02.921Z,58.87
2022-11-05T11:16:02.917Z,58.44
2022-11-05T11:17:02.884Z,59.23
2022-11-05T11:18:02.891Z,59.43
2022-11-05T11:19:02.864Z,59.08
2022-11-05T11:20:02.898Z,61.93
2022-11-05T11:21:02.843Z,62.63
2022-11-05T11:22:02.843Z,61.41
2022-11-05T11:23:02.817Z,63.10
2022-11-05T11:24:02.826Z,64.01
2022-11-05T11:25:02.800Z,61.81
2022-11-05T11:26:02.826Z,62.75
2022-11-05T11:27:02.781Z,63.36
2022-11-05T11:28:02.780Z,64.51
2022-11-05T11:29:02.765Z,64.89
2022-11-05T11:30:02.783Z,65.64
2022-11-05T11:31:02.764Z,63.64
2022-11-05T11:32:02.776Z,62.85
2022-11-05T11:33:02.712Z,64.23
2022-11-05T11:34:02.718Z,65.66
2022-11-05T11:35:02.736Z,64.34
2022-11-05T11:36:02.728Z,65.89
2022-11-05T11:37:02.728Z,65.86
2022-11-05T11:38:02.755Z,66.17
2022-11-05T11:39:02.651Z,65.94
2022-11-05T11:40:02.660Z,64.34
2022-11-05T11:41:02.634Z,65.05
2022-11-05T11:42:02.629Z,64.06
2022-11-05T11:43:02.620Z,66.35
2022-11-05T11:44:02.645Z,63.29
2022-11-05T11:45:02.585Z,63.48
2022-11-05T11:46:06.930Z,65.99
2022-11-05T11:47:02.561Z,66.63
2022-11-05T11:48:02.579Z,67.89
2022-11-05T11:49:02.568Z,69.01
2022-11-05T11:50:02.561Z,69.56
2022-11-05T11:51:02.521Z,68.63
2022-11-05T11:52:02.509Z,69.35
2022-11-05T11:53:02.506Z,69.76
2022-11-05T11:54:02.483Z,68.77
2022-11-05T11:55:02.512Z,68.43
2022-11-05T11:56:02.463Z,68.77
2022-11-05T11:57:02.478Z,69.28
2022-11-05T11:58:02.438Z,70.40
2022-11-05T11:59:02.463Z,70.20
2022-11-05T12:00:08.947Z,68.77
2022-11-05T12:01:02.501Z,69.15
2022-11-05T12:02:02.616Z,69.35
2022-11-05T12:03:02.552Z,69.35
2022-11-05T12:04:02.378Z,68.60
2022-11-05T12:05:02.378Z,68.40
2022-11-05T12:06:02.365Z,70.31
2022-11-05T12:07:02.384Z,66.91
2022-11-05T12:08:02.357Z,66.19
2022-11-05T12:09:06.699Z,66.94
2022-11-05T12:10:02.313Z,67.11
2022-11-05T12:11:02.316Z,65.78
2022-11-05T12:12:02.287Z,66.50
2022-11-05T12:13:02.331Z,65.04
2022-11-05T12:14:02.271Z,65.92
2022-11-05T12:15:02.310Z,64.54
2022-11-05T12:16:02.251Z,62.96
2022-11-05T12:17:02.253Z,60.97
2022-11-05T12:18:02.235Z,61.27
2022-11-05T12:19:02.274Z,61.56
2022-11-05T12:20:02.251Z,62.20
2022-11-05T12:21:02.206Z,64.29
2022-11-05T12:22:02.187Z,64.94
2022-11-05T12:23:02.183Z,64.84
2022-11-05T12:24:02.163Z,64.84
2022-11-05T12:25:02.191Z,65.34
2022-11-05T12:26:02.137Z,65.28
2022-11-05T12:27:02.139Z,64.84
2022-11-05T12:28:02.114Z,65.04
2022-11-05T12:29:18.409Z,64.43
2022-11-05T12:30:02.102Z,64.40
2022-11-05T12:31:02.131Z,66.44
2022-11-05T12:32:02.072Z,64.26
2022-11-05T12:33:02.122Z,66.30
2022-11-05T12:34:02.052Z,63.86
2022-11-05T12:35:02.058Z,64.64
2022-11-05T12:36:02.031Z,64.14
2022-11-05T12:37:02.060Z,66.14
2022-11-05T12:38:02.012Z,62.61
2022-11-05T12:39:02.011Z,63.83
2022-11-05T12:40:01.993Z,63.56
2022-11-05T12:41:01.990Z,64.43
2022-11-05T12:42:01.994Z,65.34
2022-11-05T12:43:02.889Z,65.92
2022-11-05T12:44:01.952Z,64.53
2022-11-05T12:45:01.970Z,65.04
2022-11-05T12:46:01.933Z,66.64
2022-11-05T12:47:01.929Z,65.04
2022-11-05T12:48:01.957Z,63.82
2022-11-05T12:49:01.907Z,65.31
2022-11-05T12:50:01.880Z,64.90
2022-11-05T12:51:01.885Z,64.40
2022-11-05T12:52:01.857Z,64.47